sensor_id;sensor_type;location;lat;lon;timestamp;pressure;altitude;pressure_sealevel;temperature;humidity
41234;BME280;26968;42.686;23.352;2023-04-04T00:01:21;93780.97;;;8.69;86.53
41234;BME280;26968;42.686;23.352;2023-04-04T00:03:46;93772.34;;;8.63;86.94
41234;BME280;26968;42.686;23.352;2023-04-04T00:06:19;93830.09;;;8.97;86.79
41234;BME280;26968;42.686;23.352;2023-04-04T00:08:44;93744.84;;;8.37;86.49
41234;BME280;26968;42.686;23.352;2023-04-04T00:11:10;93819.69;;;8.87;85.87
41234;BME280;26968;42.686;23.352;2023-04-04T00:13:35;93745.44;;;8.34;87.07
41234;BME280;26968;42.686;23.352;2023-04-04T00:16:02;93804.81;;;8.77;87.01
41234;BME280;26968;42.686;23.352;2023-04-04T00:18:27;93721.06;;;8.23;86.37
41234;BME280;26968;42.686;23.352;2023-04-04T00:20:53;93778.13;;;8.65;86.74
41234;BME280;26968;42.686;23.352;2023-04-04T00:23:18;93853.69;;;9.07;86.94
41234;BME280;26968;42.686;23.352;2023-04-04T00:25:49;93773.91;;;8.64;86.51
41234;BME280;26968;42.686;23.352;2023-04-04T00:28:15;93845.75;;;9.07;87.31
41234;BME280;26968;42.686;23.352;2023-04-04T00:30:41;93783.66;;;8.77;86.41
41234;BME280;26968;42.686;23.352;2023-04-04T00:33:06;93836.41;;;9.10;86.33
41234;BME280;26968;42.686;23.352;2023-04-04T00:35:32;93788.38;;;8.80;86.43
41234;BME280;26968;42.686;23.352;2023-04-04T00:37:57;93762.47;;;8.69;86.77
41234;BME280;26968;42.686;23.352;2023-04-04T00:40:23;93823.13;;;9.15;86.73
41234;BME280;26968;42.686;23.352;2023-04-04T00:42:48;93785.25;;;8.92;86.56
41234;BME280;26968;42.686;23.352;2023-04-04T00:45:14;93786.69;;;8.98;86.18
41234;BME280;26968;42.686;23.352;2023-04-04T00:47:42;93813.50;;;9.19;85.80
41234;BME280;26968;42.686;23.352;2023-04-04T00:50:07;93740.53;;;8.68;86.01
41234;BME280;26968;42.686;23.352;2023-04-04T00:52:33;93752.94;;;8.81;85.98
41234;BME280;26968;42.686;23.352;2023-04-04T00:54:59;93740.78;;;8.80;85.51
41234;BME280;26968;42.686;23.352;2023-04-04T00:57:26;93723.47;;;8.74;85.99
41234;BME280;26968;42.686;23.352;2023-04-04T00:59:52;93747.75;;;8.90;86.74
41234;BME280;26968;42.686;23.352;2023-04-04T01:02:18;93732.00;;;8.71;86.03
41234;BME280;26968;42.686;23.352;2023-04-04T01:04:43;93728.97;;;8.64;86.46
41234;BME280;26968;42.686;23.352;2023-04-04T01:07:09;93796.28;;;9.08;86.64
41234;BME280;26968;42.686;23.352;2023-04-04T01:09:35;93727.31;;;8.68;86.47
41234;BME280;26968;42.686;23.352;2023-04-04T01:12:01;93811.63;;;9.19;86.91
41234;BME280;26968;42.686;23.352;2023-04-04T01:14:27;93806.53;;;9.23;85.79
41234;BME280;26968;42.686;23.352;2023-04-04T01:16:52;93712.94;;;8.61;86.17
41234;BME280;26968;42.686;23.352;2023-04-04T01:19:25;93800.94;;;9.24;86.42
41234;BME280;26968;42.686;23.352;2023-04-04T01:21:53;93752.81;;;8.86;86.54
41234;BME280;26968;42.686;23.352;2023-04-04T01:24:21;93751.75;;;8.87;86.09
41234;BME280;26968;42.686;23.352;2023-04-04T01:26:49;93774.47;;;8.88;85.95
41234;BME280;26968;42.686;23.352;2023-04-04T01:29:14;93822.09;;;9.24;86.16
41234;BME280;26968;42.686;23.352;2023-04-04T01:31:59;93798.63;;;9.09;86.19
41234;BME280;26968;42.686;23.352;2023-04-04T01:37:29;93818.69;;;9.10;87.24
41234;BME280;26968;42.686;23.352;2023-04-04T01:40:10;93679.97;;;8.17;87.63
41234;BME280;26968;42.686;23.352;2023-04-04T01:42:43;93806.78;;;8.99;87.51
41234;BME280;26968;42.686;23.352;2023-04-04T01:45:09;93756.38;;;8.68;87.46
41234;BME280;26968;42.686;23.352;2023-04-04T01:47:41;93766.66;;;8.70;87.48
41234;BME280;26968;42.686;23.352;2023-04-04T01:50:09;93714.50;;;8.48;88.86
41234;BME280;26968;42.686;23.352;2023-04-04T01:52:35;93742.09;;;8.69;88.34
41234;BME280;26968;42.686;23.352;2023-04-04T01:55:02;93733.56;;;8.72;88.46
41234;BME280;26968;42.686;23.352;2023-04-04T01:57:28;93785.50;;;9.04;89.05
41234;BME280;26968;42.686;23.352;2023-04-04T01:59:53;93775.41;;;9.06;88.43
41234;BME280;26968;42.686;23.352;2023-04-04T02:02:18;93713.41;;;8.63;87.42
41234;BME280;26968;42.686;23.352;2023-04-04T02:04:44;93765.56;;;8.84;87.23
41234;BME280;26968;42.686;23.352;2023-04-04T02:07:09;93777.91;;;8.89;87.19
41234;BME280;26968;42.686;23.352;2023-04-04T02:09:35;93704.56;;;8.31;87.27
41234;BME280;26968;42.686;23.352;2023-04-04T02:12:00;93760.38;;;8.79;87.25
41234;BME280;26968;42.686;23.352;2023-04-04T02:14:26;93722.75;;;8.46;88.08
41234;BME280;26968;42.686;23.352;2023-04-04T02:16:51;93686.75;;;8.37;87.93
41234;BME280;26968;42.686;23.352;2023-04-04T02:19:17;93776.22;;;8.93;87.26
41234;BME280;26968;42.686;23.352;2023-04-04T02:21:43;93644.47;;;8.09;87.62
41234;BME280;26968;42.686;23.352;2023-04-04T02:24:09;93726.53;;;8.68;87.13
41234;BME280;26968;42.686;23.352;2023-04-04T02:26:34;93610.84;;;7.88;87.36
41234;BME280;26968;42.686;23.352;2023-04-04T02:29:00;93766.34;;;8.99;87.23
41234;BME280;26968;42.686;23.352;2023-04-04T02:31:25;93705.78;;;8.47;87.00
41234;BME280;26968;42.686;23.352;2023-04-04T02:33:51;93714.03;;;8.60;86.77
41234;BME280;26968;42.686;23.352;2023-04-04T02:36:16;93712.81;;;8.66;86.48
41234;BME280;26968;42.686;23.352;2023-04-04T02:38:42;93748.53;;;8.90;86.24
41234;BME280;26968;42.686;23.352;2023-04-04T02:41:07;93746.88;;;8.81;85.99
41234;BME280;26968;42.686;23.352;2023-04-04T02:43:32;93683.47;;;8.26;85.66
41234;BME280;26968;42.686;23.352;2023-04-04T02:45:58;93755.41;;;8.64;85.58
41234;BME280;26968;42.686;23.352;2023-04-04T02:48:23;93731.06;;;8.54;86.34
41234;BME280;26968;42.686;23.352;2023-04-04T02:50:50;93702.31;;;8.38;86.30
41234;BME280;26968;42.686;23.352;2023-04-04T02:53:15;93772.78;;;8.93;86.19
41234;BME280;26968;42.686;23.352;2023-04-04T02:55:41;93741.91;;;8.66;85.67
41234;BME280;26968;42.686;23.352;2023-04-04T02:58:07;93726.16;;;8.61;85.83
41234;BME280;26968;42.686;23.352;2023-04-04T03:00:32;93782.78;;;8.96;86.33
41234;BME280;26968;42.686;23.352;2023-04-04T03:02:58;93734.84;;;8.75;85.46
41234;BME280;26968;42.686;23.352;2023-04-04T03:05:24;93719.38;;;8.55;85.30
41234;BME280;26968;42.686;23.352;2023-04-04T03:07:54;93762.47;;;8.69;86.26
41234;BME280;26968;42.686;23.352;2023-04-04T03:10:23;93729.88;;;8.60;86.38
41234;BME280;26968;42.686;23.352;2023-04-04T03:12:49;93715.50;;;8.52;86.18
41234;BME280;26968;42.686;23.352;2023-04-04T03:15:15;93773.78;;;8.97;86.33
41234;BME280;26968;42.686;23.352;2023-04-04T03:17:40;93711.66;;;8.58;85.59
41234;BME280;26968;42.686;23.352;2023-04-04T03:20:06;93778.56;;;8.95;86.25
41234;BME280;26968;42.686;23.352;2023-04-04T03:22:32;93766.25;;;8.90;86.48
41234;BME280;26968;42.686;23.352;2023-04-04T03:24:57;93760.19;;;8.89;86.37
41234;BME280;26968;42.686;23.352;2023-04-04T03:27:23;93785.72;;;9.08;86.29
41234;BME280;26968;42.686;23.352;2023-04-04T03:29:48;93746.56;;;8.82;86.65
41234;BME280;26968;42.686;23.352;2023-04-04T03:32:14;93783.72;;;9.13;87.05
41234;BME280;26968;42.686;23.352;2023-04-04T03:34:39;93780.00;;;9.14;86.78
41234;BME280;26968;42.686;23.352;2023-04-04T03:37:04;93693.84;;;8.64;86.85
41234;BME280;26968;42.686;23.352;2023-04-04T03:39:30;93727.59;;;8.80;86.88
41234;BME280;26968;42.686;23.352;2023-04-04T03:41:56;93763.78;;;9.07;86.17
41234;BME280;26968;42.686;23.352;2023-04-04T03:44:22;93734.16;;;8.83;86.08
41234;BME280;26968;42.686;23.352;2023-04-04T03:46:47;93715.47;;;8.66;85.97
41234;BME280;26968;42.686;23.352;2023-04-04T03:49:13;93735.72;;;8.70;86.90
41234;BME280;26968;42.686;23.352;2023-04-04T03:51:38;93758.69;;;8.97;86.69
41234;BME280;26968;42.686;23.352;2023-04-04T03:54:04;93785.31;;;9.14;86.60
41234;BME280;26968;42.686;23.352;2023-04-04T03:56:30;93782.66;;;9.14;86.90
41234;BME280;26968;42.686;23.352;2023-04-04T03:58:57;93722.41;;;8.75;86.24
41234;BME280;26968;42.686;23.352;2023-04-04T04:01:22;93722.78;;;8.82;86.66
41234;BME280;26968;42.686;23.352;2023-04-04T04:03:48;93784.88;;;9.21;86.48
41234;BME280;26968;42.686;23.352;2023-04-04T04:06:13;93739.81;;;8.90;86.57
41234;BME280;26968;42.686;23.352;2023-04-04T04:08:38;93782.41;;;9.24;87.00
41234;BME280;26968;42.686;23.352;2023-04-04T04:11:05;93786.81;;;9.29;86.81
41234;BME280;26968;42.686;23.352;2023-04-04T04:13:31;93778.88;;;9.29;87.64
41234;BME280;26968;42.686;23.352;2023-04-04T04:15:56;93725.88;;;8.98;87.32
41234;BME280;26968;42.686;23.352;2023-04-04T04:18:21;93779.66;;;9.29;87.40
41234;BME280;26968;42.686;23.352;2023-04-04T04:20:47;93758.72;;;9.19;87.78
41234;BME280;26968;42.686;23.352;2023-04-04T04:23:12;93652.78;;;8.44;87.72
41234;BME280;26968;42.686;23.352;2023-04-04T04:25:38;93789.09;;;9.22;87.66
41234;BME280;26968;42.686;23.352;2023-04-04T04:28:03;93776.28;;;9.15;87.56
41234;BME280;26968;42.686;23.352;2023-04-04T04:30:29;93678.50;;;8.52;87.15
41234;BME280;26968;42.686;23.352;2023-04-04T04:32:54;93797.69;;;9.27;87.29
41234;BME280;26968;42.686;23.352;2023-04-04T04:35:20;93734.16;;;8.83;87.05
41234;BME280;26968;42.686;23.352;2023-04-04T04:37:45;93806.78;;;9.35;87.11
41234;BME280;26968;42.686;23.352;2023-04-04T04:40:11;93739.53;;;8.78;86.49
41234;BME280;26968;42.686;23.352;2023-04-04T04:42:43;93810.44;;;9.25;87.67
41234;BME280;26968;42.686;23.352;2023-04-04T04:45:09;93772.03;;;8.92;86.91
41234;BME280;26968;42.686;23.352;2023-04-04T04:47:35;93815.94;;;9.29;86.56
41234;BME280;26968;42.686;23.352;2023-04-04T04:50:01;93791.44;;;9.23;86.61
41234;BME280;26968;42.686;23.352;2023-04-04T04:52:27;93742.94;;;8.92;86.65
41234;BME280;26968;42.686;23.352;2023-04-04T04:54:53;93766.41;;;8.94;86.84
41234;BME280;26968;42.686;23.352;2023-04-04T04:57:20;93819.44;;;9.38;86.49
41234;BME280;26968;42.686;23.352;2023-04-04T04:59:45;93826.22;;;9.31;85.96
41234;BME280;26968;42.686;23.352;2023-04-04T05:02:10;93781.22;;;8.95;86.47
41234;BME280;26968;42.686;23.352;2023-04-04T05:04:36;93757.28;;;8.36;86.02
41234;BME280;26968;42.686;23.352;2023-04-04T05:07:01;93844.56;;;8.86;87.60
41234;BME280;26968;42.686;23.352;2023-04-04T05:09:27;93770.00;;;8.34;87.51
41234;BME280;26968;42.686;23.352;2023-04-04T05:11:53;93752.03;;;8.04;89.14
41234;BME280;26968;42.686;23.352;2023-04-04T05:14:18;93836.38;;;8.28;88.67
41234;BME280;26968;42.686;23.352;2023-04-04T05:16:44;93663.13;;;7.26;90.68
41234;BME280;26968;42.686;23.352;2023-04-04T05:19:09;93724.94;;;7.85;89.41
41234;BME280;26968;42.686;23.352;2023-04-04T05:21:35;93833.50;;;8.70;88.87
41234;BME280;26968;42.686;23.352;2023-04-04T05:24:00;93737.88;;;8.13;87.51
41234;BME280;26968;42.686;23.352;2023-04-04T05:26:26;93830.41;;;8.68;87.50
41234;BME280;26968;42.686;23.352;2023-04-04T05:28:53;93734.50;;;7.81;86.77
41234;BME280;26968;42.686;23.352;2023-04-04T05:31:19;93840.88;;;8.27;88.38
41234;BME280;26968;42.686;23.352;2023-04-04T05:33:45;93795.59;;;7.88;88.50
41234;BME280;26968;42.686;23.352;2023-04-04T05:36:10;93781.75;;;7.96;88.60
41234;BME280;26968;42.686;23.352;2023-04-04T05:38:37;93758.69;;;8.01;88.13
41234;BME280;26968;42.686;23.352;2023-04-04T05:41:04;93843.00;;;8.44;88.12
41234;BME280;26968;42.686;23.352;2023-04-04T05:43:30;93771.72;;;7.79;88.98
41234;BME280;26968;42.686;23.352;2023-04-04T05:45:55;93775.97;;;7.94;88.55
41234;BME280;26968;42.686;23.352;2023-04-04T05:48:21;93835.16;;;8.39;87.44
41234;BME280;26968;42.686;23.352;2023-04-04T05:50:46;93854.25;;;8.17;88.57
41234;BME280;26968;42.686;23.352;2023-04-04T05:53:12;93755.84;;;7.33;89.80
41234;BME280;26968;42.686;23.352;2023-04-04T05:55:38;93736.09;;;7.17;90.38
41234;BME280;26968;42.686;23.352;2023-04-04T05:58:03;93792.91;;;7.60;90.02
41234;BME280;26968;42.686;23.352;2023-04-04T06:00:29;93753.88;;;7.57;90.76
41234;BME280;26968;42.686;23.352;2023-04-04T06:02:55;93831.88;;;8.28;91.29
41234;BME280;26968;42.686;23.352;2023-04-04T06:05:23;93792.03;;;7.97;90.77
41234;BME280;26968;42.686;23.352;2023-04-04T06:07:49;93790.78;;;8.08;89.25
41234;BME280;26968;42.686;23.352;2023-04-04T06:10:15;93880.63;;;8.82;90.53
41234;BME280;26968;42.686;23.352;2023-04-04T06:12:40;93805.13;;;8.35;89.18
41234;BME280;26968;42.686;23.352;2023-04-04T06:15:06;93875.03;;;8.97;88.97
41234;BME280;26968;42.686;23.352;2023-04-04T06:17:32;93741.31;;;8.28;87.69
41234;BME280;26968;42.686;23.352;2023-04-04T06:19:58;93879.81;;;9.09;86.61
41234;BME280;26968;42.686;23.352;2023-04-04T06:22:23;93796.91;;;8.36;86.24
41234;BME280;26968;42.686;23.352;2023-04-04T06:24:48;93812.31;;;8.29;85.83
41234;BME280;26968;42.686;23.352;2023-04-04T06:27:14;93786.31;;;8.23;88.47
41234;BME280;26968;42.686;23.352;2023-04-04T06:29:40;93889.94;;;9.07;89.26
41234;BME280;26968;42.686;23.352;2023-04-04T06:32:05;93796.00;;;8.41;90.02
41234;BME280;26968;42.686;23.352;2023-04-04T06:34:31;93831.25;;;8.50;89.02
41234;BME280;26968;42.686;23.352;2023-04-04T06:36:56;93834.69;;;8.50;89.90
41234;BME280;26968;42.686;23.352;2023-04-04T06:39:22;93829.97;;;7.69;85.99
41234;BME280;26968;42.686;23.352;2023-04-04T06:41:47;93821.38;;;7.07;85.44
41234;BME280;26968;42.686;23.352;2023-04-04T06:44:13;93803.25;;;6.34;83.73
41234;BME280;26968;42.686;23.352;2023-04-04T06:46:38;93850.28;;;6.46;85.32
41234;BME280;26968;42.686;23.352;2023-04-04T06:49:04;93877.91;;;6.19;83.77
41234;BME280;26968;42.686;23.352;2023-04-04T06:51:32;93872.63;;;5.91;83.14
41234;BME280;26968;42.686;23.352;2023-04-04T06:53:59;93958.59;;;6.39;84.14
41234;BME280;26968;42.686;23.352;2023-04-04T06:56:25;93880.34;;;5.77;84.77
41234;BME280;26968;42.686;23.352;2023-04-04T06:58:51;93979.69;;;5.95;83.09
41234;BME280;26968;42.686;23.352;2023-04-04T07:01:17;93852.25;;;4.84;84.25
41234;BME280;26968;42.686;23.352;2023-04-04T07:03:43;93846.28;;;4.69;83.79
41234;BME280;26968;42.686;23.352;2023-04-04T07:06:11;93905.31;;;4.86;83.73
41234;BME280;26968;42.686;23.352;2023-04-04T07:08:36;93900.38;;;4.59;83.07
41234;BME280;26968;42.686;23.352;2023-04-04T07:11:03;93943.56;;;5.13;84.95
41234;BME280;26968;42.686;23.352;2023-04-04T07:13:28;93996.84;;;5.33;83.58
41234;BME280;26968;42.686;23.352;2023-04-04T07:15:54;94023.59;;;5.46;84.22
41234;BME280;26968;42.686;23.352;2023-04-04T07:18:19;93889.94;;;4.39;83.52
41234;BME280;26968;42.686;23.352;2023-04-04T07:20:45;93933.19;;;4.67;83.33
41234;BME280;26968;42.686;23.352;2023-04-04T07:23:11;93899.16;;;4.26;82.66
41234;BME280;26968;42.686;23.352;2023-04-04T07:25:37;94051.31;;;5.13;82.85
41234;BME280;26968;42.686;23.352;2023-04-04T07:28:06;94041.91;;;4.66;80.19
41234;BME280;26968;42.686;23.352;2023-04-04T07:30:31;94058.72;;;4.80;81.26
41234;BME280;26968;42.686;23.352;2023-04-04T07:32:58;94032.22;;;4.56;82.25
41234;BME280;26968;42.686;23.352;2023-04-04T07:35:24;94067.66;;;4.84;82.38
41234;BME280;26968;42.686;23.352;2023-04-04T07:37:50;94008.59;;;4.46;82.18
41234;BME280;26968;42.686;23.352;2023-04-04T07:40:16;94020.66;;;4.73;81.96
41234;BME280;26968;42.686;23.352;2023-04-04T07:42:43;94021.97;;;4.60;80.27
41234;BME280;26968;42.686;23.352;2023-04-04T07:45:10;94049.56;;;4.42;80.45
41234;BME280;26968;42.686;23.352;2023-04-04T07:47:35;94013.81;;;4.21;81.26
41234;BME280;26968;42.686;23.352;2023-04-04T07:50:02;94014.63;;;4.11;80.39
41234;BME280;26968;42.686;23.352;2023-04-04T07:52:28;93978.88;;;3.75;80.76
41234;BME280;26968;42.686;23.352;2023-04-04T07:54:53;94011.72;;;4.03;81.46
41234;BME280;26968;42.686;23.352;2023-04-04T07:57:21;93949.72;;;3.46;81.21
41234;BME280;26968;42.686;23.352;2023-04-04T07:59:47;94065.81;;;4.24;80.45
41234;BME280;26968;42.686;23.352;2023-04-04T08:02:12;93996.44;;;3.64;79.46
41234;BME280;26968;42.686;23.352;2023-04-04T08:04:37;94100.44;;;4.26;80.46
41234;BME280;26968;42.686;23.352;2023-04-04T08:07:03;94012.47;;;3.73;81.05
41234;BME280;26968;42.686;23.352;2023-04-04T08:09:29;93977.19;;;3.28;79.81
41234;BME280;26968;42.686;23.352;2023-04-04T08:11:59;94108.56;;;4.14;79.61
41234;BME280;26968;42.686;23.352;2023-04-04T08:14:25;93926.75;;;2.91;79.22
41234;BME280;26968;42.686;23.352;2023-04-04T08:16:51;94125.88;;;4.20;78.91
41234;BME280;26968;42.686;23.352;2023-04-04T08:19:17;93946.28;;;3.20;80.34
41234;BME280;26968;42.686;23.352;2023-04-04T08:21:43;94047.84;;;3.75;80.52
41234;BME280;26968;42.686;23.352;2023-04-04T08:24:09;94102.50;;;4.09;78.98
41234;BME280;26968;42.686;23.352;2023-04-04T08:26:34;94042.06;;;3.68;79.81
41234;BME280;26968;42.686;23.352;2023-04-04T08:28:59;94130.13;;;4.32;79.65
41234;BME280;26968;42.686;23.352;2023-04-04T08:31:25;94132.44;;;4.23;78.92
41234;BME280;26968;42.686;23.352;2023-04-04T08:33:51;94140.34;;;4.33;78.56
41234;BME280;26968;42.686;23.352;2023-04-04T08:36:16;94124.53;;;4.03;78.45
41234;BME280;26968;42.686;23.352;2023-04-04T08:38:43;94090.28;;;3.62;77.96
41234;BME280;26968;42.686;23.352;2023-04-04T08:41:10;94146.81;;;4.00;77.82
41234;BME280;26968;42.686;23.352;2023-04-04T08:43:37;94041.22;;;3.42;78.73
41234;BME280;26968;42.686;23.352;2023-04-04T08:46:04;94155.25;;;4.12;78.40
41234;BME280;26968;42.686;23.352;2023-04-04T08:48:30;94042.75;;;3.38;77.11
41234;BME280;26968;42.686;23.352;2023-04-04T08:50:58;94103.66;;;3.61;78.00
41234;BME280;26968;42.686;23.352;2023-04-04T08:53:24;94152.38;;;4.09;77.26
41234;BME280;26968;42.686;23.352;2023-04-04T08:55:53;94068.34;;;3.21;77.18
41234;BME280;26968;42.686;23.352;2023-04-04T08:58:19;94042.03;;;3.01;78.49
41234;BME280;26968;42.686;23.352;2023-04-04T09:00:44;93986.91;;;2.76;78.52
41234;BME280;26968;42.686;23.352;2023-04-04T09:03:24;94035.22;;;2.95;78.24
41234;BME280;26968;42.686;23.352;2023-04-04T09:05:56;94159.00;;;3.64;77.01
41234;BME280;26968;42.686;23.352;2023-04-04T09:08:22;94045.44;;;2.96;78.32
41234;BME280;26968;42.686;23.352;2023-04-04T09:10:51;94122.22;;;3.49;79.23
41234;BME280;26968;42.686;23.352;2023-04-04T09:13:17;94086.25;;;3.39;81.24
41234;BME280;26968;42.686;23.352;2023-04-04T09:15:49;94205.16;;;3.65;79.13
41234;BME280;26968;42.686;23.352;2023-04-04T09:18:15;94062.31;;;2.74;79.49
41234;BME280;26968;42.686;23.352;2023-04-04T09:20:45;94162.03;;;3.46;81.38
41234;BME280;26968;42.686;23.352;2023-04-04T09:23:13;94155.19;;;3.35;79.58
41234;BME280;26968;42.686;23.352;2023-04-04T09:25:50;94193.34;;;3.68;81.46
41234;BME280;26968;42.686;23.352;2023-04-04T09:28:17;94120.59;;;3.38;83.43
41234;BME280;26968;42.686;23.352;2023-04-04T09:30:42;94125.88;;;3.48;82.54
41234;BME280;26968;42.686;23.352;2023-04-04T09:33:11;94194.94;;;3.74;81.49
41234;BME280;26968;42.686;23.352;2023-04-04T09:35:38;94188.06;;;3.58;82.37
41234;BME280;26968;42.686;23.352;2023-04-04T09:38:06;94209.06;;;3.63;82.59
41234;BME280;26968;42.686;23.352;2023-04-04T09:40:32;94187.69;;;3.44;80.81
41234;BME280;26968;42.686;23.352;2023-04-04T09:43:02;94202.72;;;3.54;82.64
41234;BME280;26968;42.686;23.352;2023-04-04T09:45:38;94172.69;;;3.29;83.93
41234;BME280;26968;42.686;23.352;2023-04-04T09:48:05;94183.69;;;3.26;81.18
41234;BME280;26968;42.686;23.352;2023-04-04T09:50:32;94181.22;;;3.15;82.47
41234;BME280;26968;42.686;23.352;2023-04-04T09:52:58;94197.03;;;3.25;82.53
41234;BME280;26968;42.686;23.352;2023-04-04T09:55:32;94212.75;;;3.25;82.81
41234;BME280;26968;42.686;23.352;2023-04-04T09:57:58;94153.84;;;2.95;83.13
41234;BME280;26968;42.686;23.352;2023-04-04T10:00:27;94143.88;;;2.92;81.80
41234;BME280;26968;42.686;23.352;2023-04-04T10:02:53;94148.94;;;3.04;82.29
41234;BME280;26968;42.686;23.352;2023-04-04T10:05:22;94183.69;;;3.31;82.39
41234;BME280;26968;42.686;23.352;2023-04-04T10:07:48;94121.63;;;2.95;80.00
41234;BME280;26968;42.686;23.352;2023-04-04T10:10:14;94163.91;;;3.14;79.96
41234;BME280;26968;42.686;23.352;2023-04-04T10:12:40;94174.13;;;3.10;80.71
41234;BME280;26968;42.686;23.352;2023-04-04T10:15:06;94179.16;;;3.22;79.14
41234;BME280;26968;42.686;23.352;2023-04-04T10:17:37;94222.31;;;3.41;81.00
41234;BME280;26968;42.686;23.352;2023-04-04T10:20:07;94177.06;;;3.19;80.43
41234;BME280;26968;42.686;23.352;2023-04-04T10:22:37;94150.56;;;3.15;79.52
41234;BME280;26968;42.686;23.352;2023-04-04T10:25:06;94129.50;;;2.95;79.08
41234;BME280;26968;42.686;23.352;2023-04-04T10:27:34;94179.50;;;3.30;79.37
41234;BME280;26968;42.686;23.352;2023-04-04T10:29:59;94116.88;;;2.92;80.12
41234;BME280;26968;42.686;23.352;2023-04-04T10:32:35;94245.44;;;3.49;78.04
41234;BME280;26968;42.686;23.352;2023-04-04T10:35:04;94250.41;;;3.51;78.35
41234;BME280;26968;42.686;23.352;2023-04-04T10:37:36;94149.16;;;2.65;78.48
41234;BME280;26968;42.686;23.352;2023-04-04T10:40:15;94244.09;;;3.46;79.72
41234;BME280;26968;42.686;23.352;2023-04-04T10:42:43;94207.75;;;3.23;78.81
41234;BME280;26968;42.686;23.352;2023-04-04T10:45:12;94238.75;;;3.36;79.79
41234;BME280;26968;42.686;23.352;2023-04-04T10:47:38;94273.03;;;3.62;79.89
41234;BME280;26968;42.686;23.352;2023-04-04T10:50:04;94217.28;;;3.34;80.77
41234;BME280;26968;42.686;23.352;2023-04-04T10:52:38;94214.28;;;3.58;80.68
41234;BME280;26968;42.686;23.352;2023-04-04T10:55:06;94265.34;;;3.92;81.13
41234;BME280;26968;42.686;23.352;2023-04-04T10:57:36;94230.53;;;3.60;78.35
41234;BME280;26968;42.686;23.352;2023-04-04T11:00:03;94275.75;;;3.77;77.47
41234;BME280;26968;42.686;23.352;2023-04-04T11:02:59;94222.84;;;3.43;79.27
41234;BME280;26968;42.686;23.352;2023-04-04T11:05:38;94256.81;;;3.70;79.47
41234;BME280;26968;42.686;23.352;2023-04-04T11:08:15;94274.38;;;3.64;79.18
41234;BME280;26968;42.686;23.352;2023-04-04T11:10:46;94251.69;;;3.48;78.81
41234;BME280;26968;42.686;23.352;2023-04-04T11:13:31;94232.25;;;3.39;79.31
41234;BME280;26968;42.686;23.352;2023-04-04T11:16:06;94234.63;;;3.40;79.41
41234;BME280;26968;42.686;23.352;2023-04-04T11:21:20;94257.97;;;3.47;80.00
41234;BME280;26968;42.686;23.352;2023-04-04T11:28:50;94278.84;;;3.69;81.76
41234;BME280;26968;42.686;23.352;2023-04-04T11:34:02;94300.75;;;3.53;79.77
41234;BME280;26968;42.686;23.352;2023-04-04T11:39:03;94287.59;;;3.42;79.50
41234;BME280;26968;42.686;23.352;2023-04-04T11:41:52;94287.41;;;3.54;81.00
41234;BME280;26968;42.686;23.352;2023-04-04T11:44:19;94246.09;;;3.34;80.71
41234;BME280;26968;42.686;23.352;2023-04-04T11:46:45;94278.34;;;3.72;80.96
41234;BME280;26968;42.686;23.352;2023-04-04T11:49:15;94256.72;;;3.55;78.46
41234;BME280;26968;42.686;23.352;2023-04-04T11:51:41;94233.63;;;3.15;77.55
41234;BME280;26968;42.686;23.352;2023-04-04T11:54:13;94228.63;;;3.13;78.85
41234;BME280;26968;42.686;23.352;2023-04-04T11:56:42;94233.72;;;3.25;79.81
41234;BME280;26968;42.686;23.352;2023-04-04T11:59:11;94303.69;;;3.61;77.50
41234;BME280;26968;42.686;23.352;2023-04-04T12:01:38;94225.72;;;3.09;78.28
41234;BME280;26968;42.686;23.352;2023-04-04T12:04:04;94218.75;;;2.88;77.47
41234;BME280;26968;42.686;23.352;2023-04-04T12:06:30;94289.41;;;3.42;77.71
41234;BME280;26968;42.686;23.352;2023-04-04T12:09:04;94159.84;;;2.59;78.21
41234;BME280;26968;42.686;23.352;2023-04-04T12:11:32;94301.63;;;3.63;79.88
41234;BME280;26968;42.686;23.352;2023-04-04T12:13:59;94257.28;;;3.25;77.50
41234;BME280;26968;42.686;23.352;2023-04-04T12:16:31;94214.69;;;3.07;77.73
41234;BME280;26968;42.686;23.352;2023-04-04T12:19:00;94294.97;;;3.51;77.47
41234;BME280;26968;42.686;23.352;2023-04-04T12:21:26;94290.56;;;3.56;77.85
41234;BME280;26968;42.686;23.352;2023-04-04T12:23:51;94114.13;;;2.40;77.50
41234;BME280;26968;42.686;23.352;2023-04-04T12:26:18;94248.97;;;3.33;78.08
41234;BME280;26968;42.686;23.352;2023-04-04T12:28:44;94233.59;;;3.09;76.30
41234;BME280;26968;42.686;23.352;2023-04-04T12:31:11;94332.13;;;3.42;77.37
41234;BME280;26968;42.686;23.352;2023-04-04T12:33:40;94232.28;;;2.80;79.27
41234;BME280;26968;42.686;23.352;2023-04-04T12:36:06;94281.50;;;3.05;79.22
41234;BME280;26968;42.686;23.352;2023-04-04T12:38:32;94292.75;;;3.05;78.60
41234;BME280;26968;42.686;23.352;2023-04-04T12:40:58;94303.84;;;3.13;77.70
41234;BME280;26968;42.686;23.352;2023-04-04T12:43:27;94313.91;;;2.99;79.24
41234;BME280;26968;42.686;23.352;2023-04-04T12:45:56;94296.06;;;2.96;81.00
41234;BME280;26968;42.686;23.352;2023-04-04T12:48:28;94320.59;;;3.12;80.18
41234;BME280;26968;42.686;23.352;2023-04-04T12:50:58;94281.53;;;2.83;79.82
41234;BME280;26968;42.686;23.352;2023-04-04T12:53:26;94280.25;;;2.59;79.71
41234;BME280;26968;42.686;23.352;2023-04-04T12:56:00;94283.75;;;2.69;80.29
41234;BME280;26968;42.686;23.352;2023-04-04T12:58:29;94277.97;;;2.67;79.94
41234;BME280;26968;42.686;23.352;2023-04-04T13:00:58;94330.34;;;3.21;81.21
41234;BME280;26968;42.686;23.352;2023-04-04T13:03:26;94263.56;;;2.65;80.28
41234;BME280;26968;42.686;23.352;2023-04-04T13:05:52;94236.66;;;2.48;79.17
41234;BME280;26968;42.686;23.352;2023-04-04T13:08:18;94247.50;;;2.56;80.05
41234;BME280;26968;42.686;23.352;2023-04-04T13:11:03;94300.06;;;2.77;79.50
41234;BME280;26968;42.686;23.352;2023-04-04T13:13:37;94286.06;;;2.44;78.98
41234;BME280;26968;42.686;23.352;2023-04-04T13:16:33;94311.81;;;2.52;78.70